sensor_id;sensor_type;location;lat;lon;timestamp;temperature;humidity
71563;DHT22;59391;52.504;13.438;2023-06-04T00:01:57;17.50;29.20
71563;DHT22;59391;52.504;13.438;2023-06-04T00:04:25;17.50;29.30
71563;DHT22;59391;52.504;13.438;2023-06-04T00:06:51;17.40;29.60
71563;DHT22;59391;52.504;13.438;2023-06-04T00:09:16;17.30;29.70
71563;DHT22;59391;52.504;13.438;2023-06-04T00:11:42;17.30;29.70
71563;DHT22;59391;52.504;13.438;2023-06-04T00:14:08;17.20;29.90
71563;DHT22;59391;52.504;13.438;2023-06-04T00:16:33;17.20;30.00
71563;DHT22;59391;52.504;13.438;2023-06-04T00:19:01;17.10;30.20
71563;DHT22;59391;52.504;13.438;2023-06-04T00:21:28;17.10;30.50
71563;DHT22;59391;52.504;13.438;2023-06-04T00:23:54;17.10;30.80
71563;DHT22;59391;52.504;13.438;2023-06-04T00:26:19;17.00;30.90
71563;DHT22;59391;52.504;13.438;2023-06-04T00:28:45;17.00;31.30
71563;DHT22;59391;52.504;13.438;2023-06-04T00:31:11;16.90;31.40
71563;DHT22;59391;52.504;13.438;2023-06-04T00:33:38;16.90;31.60
71563;DHT22;59391;52.504;13.438;2023-06-04T00:36:04;16.90;31.80
71563;DHT22;59391;52.504;13.438;2023-06-04T00:38:30;16.80;31.90
71563;DHT22;59391;52.504;13.438;2023-06-04T00:40:59;16.80;32.20
71563;DHT22;59391;52.504;13.438;2023-06-04T00:43:24;16.80;32.30
71563;DHT22;59391;52.504;13.438;2023-06-04T00:45:54;16.70;32.50
71563;DHT22;59391;52.504;13.438;2023-06-04T00:48:23;16.70;32.60
71563;DHT22;59391;52.504;13.438;2023-06-04T00:50:53;16.70;32.80
71563;DHT22;59391;52.504;13.438;2023-06-04T00:53:26;16.60;33.00
71563;DHT22;59391;52.504;13.438;2023-06-04T00:55:51;16.60;33.10
71563;DHT22;59391;52.504;13.438;2023-06-04T00:58:17;16.60;33.20
71563;DHT22;59391;52.504;13.438;2023-06-04T01:00:46;16.60;33.40
71563;DHT22;59391;52.504;13.438;2023-06-04T01:03:15;16.60;33.40
71563;DHT22;59391;52.504;13.438;2023-06-04T01:05:53;16.50;33.60
71563;DHT22;59391;52.504;13.438;2023-06-04T01:08:48;16.50;33.60
71563;DHT22;59391;52.504;13.438;2023-06-04T01:11:14;16.50;33.60
71563;DHT22;59391;52.504;13.438;2023-06-04T01:13:40;16.50;33.60
71563;DHT22;59391;52.504;13.438;2023-06-04T01:16:06;16.50;33.70
71563;DHT22;59391;52.504;13.438;2023-06-04T01:18:37;16.50;33.70
71563;DHT22;59391;52.504;13.438;2023-06-04T01:21:08;16.50;33.80
71563;DHT22;59391;52.504;13.438;2023-06-04T01:23:46;16.50;33.80
71563;DHT22;59391;52.504;13.438;2023-06-04T01:26:25;16.40;33.70
71563;DHT22;59391;52.504;13.438;2023-06-04T01:28:53;16.40;33.70
71563;DHT22;59391;52.504;13.438;2023-06-04T01:31:20;16.40;33.70
71563;DHT22;59391;52.504;13.438;2023-06-04T01:33:53;16.40;33.80
71563;DHT22;59391;52.504;13.438;2023-06-04T01:36:21;16.40;34.10
71563;DHT22;59391;52.504;13.438;2023-06-04T01:38:47;16.40;34.20
71563;DHT22;59391;52.504;13.438;2023-06-04T01:41:12;16.30;34.30
71563;DHT22;59391;52.504;13.438;2023-06-04T01:43:38;16.30;34.60
71563;DHT22;59391;52.504;13.438;2023-06-04T01:46:03;16.30;34.40
71563;DHT22;59391;52.504;13.438;2023-06-04T01:48:29;16.20;34.60
71563;DHT22;59391;52.504;13.438;2023-06-04T01:50:57;16.20;34.70
71563;DHT22;59391;52.504;13.438;2023-06-04T01:53:23;16.20;34.80
71563;DHT22;59391;52.504;13.438;2023-06-04T01:55:49;16.20;34.80
71563;DHT22;59391;52.504;13.438;2023-06-04T01:58:16;16.20;35.00
71563;DHT22;59391;52.504;13.438;2023-06-04T02:00:43;16.10;35.00
71563;DHT22;59391;52.504;13.438;2023-06-04T02:03:09;16.10;35.10
71563;DHT22;59391;52.504;13.438;2023-06-04T02:05:36;16.10;35.10
71563;DHT22;59391;52.504;13.438;2023-06-04T02:08:02;16.10;35.10
71563;DHT22;59391;52.504;13.438;2023-06-04T02:10:30;16.10;35.20
71563;DHT22;59391;52.504;13.438;2023-06-04T02:12:58;16.10;35.30
71563;DHT22;59391;52.504;13.438;2023-06-04T02:15:26;16.00;35.30
71563;DHT22;59391;52.504;13.438;2023-06-04T02:17:59;16.00;35.40
71563;DHT22;59391;52.504;13.438;2023-06-04T02:20:41;16.00;35.60
71563;DHT22;59391;52.504;13.438;2023-06-04T02:23:07;15.90;35.50
71563;DHT22;59391;52.504;13.438;2023-06-04T02:25:32;15.90;35.60
71563;DHT22;59391;52.504;13.438;2023-06-04T02:27:58;15.90;35.70
71563;DHT22;59391;52.504;13.438;2023-06-04T02:30:23;15.90;35.80
71563;DHT22;59391;52.504;13.438;2023-06-04T02:32:49;15.90;35.90
71563;DHT22;59391;52.504;13.438;2023-06-04T02:35:16;15.80;35.90
71563;DHT22;59391;52.504;13.438;2023-06-04T02:37:43;15.80;36.10
71563;DHT22;59391;52.504;13.438;2023-06-04T02:40:10;15.80;36.20
71563;DHT22;59391;52.504;13.438;2023-06-04T02:42:36;15.80;36.40
71563;DHT22;59391;52.504;13.438;2023-06-04T02:45:01;15.70;36.40
71563;DHT22;59391;52.504;13.438;2023-06-04T02:47:27;15.70;36.50
71563;DHT22;59391;52.504;13.438;2023-06-04T02:49:53;15.70;36.50
71563;DHT22;59391;52.504;13.438;2023-06-04T02:52:18;15.70;36.60
71563;DHT22;59391;52.504;13.438;2023-06-04T02:54:46;15.70;36.60
71563;DHT22;59391;52.504;13.438;2023-06-04T02:57:11;15.60;36.50
71563;DHT22;59391;52.504;13.438;2023-06-04T02:59:37;15.60;36.50
71563;DHT22;59391;52.504;13.438;2023-06-04T03:02:04;15.60;36.50
71563;DHT22;59391;52.504;13.438;2023-06-04T03:04:30;15.60;36.50
71563;DHT22;59391;52.504;13.438;2023-06-04T03:07:00;15.50;36.70
71563;DHT22;59391;52.504;13.438;2023-06-04T03:09:28;15.50;36.70
71563;DHT22;59391;52.504;13.438;2023-06-04T03:11:56;15.50;36.70
71563;DHT22;59391;52.504;13.438;2023-06-04T03:14:24;15.50;36.70
71563;DHT22;59391;52.504;13.438;2023-06-04T03:17:00;15.50;36.70
71563;DHT22;59391;52.504;13.438;2023-06-04T03:19:34;15.40;36.80
71563;DHT22;59391;52.504;13.438;2023-06-04T03:22:01;15.40;36.90
71563;DHT22;59391;52.504;13.438;2023-06-04T03:24:37;15.40;37.00
71563;DHT22;59391;52.504;13.438;2023-06-04T03:27:06;15.40;37.10
71563;DHT22;59391;52.504;13.438;2023-06-04T03:29:32;15.40;37.10
71563;DHT22;59391;52.504;13.438;2023-06-04T03:31:59;15.30;37.20
71563;DHT22;59391;52.504;13.438;2023-06-04T03:34:25;15.30;37.20
71563;DHT22;59391;52.504;13.438;2023-06-04T03:36:54;15.30;37.10
71563;DHT22;59391;52.504;13.438;2023-06-04T03:39:20;15.30;37.00
71563;DHT22;59391;52.504;13.438;2023-06-04T03:41:47;15.30;37.10
71563;DHT22;59391;52.504;13.438;2023-06-04T03:44:14;15.30;37.10
71563;DHT22;59391;52.504;13.438;2023-06-04T03:46:44;15.30;37.20
71563;DHT22;59391;52.504;13.438;2023-06-04T03:49:10;15.20;37.20
71563;DHT22;59391;52.504;13.438;2023-06-04T03:51:37;15.20;37.30
71563;DHT22;59391;52.504;13.438;2023-06-04T03:54:03;15.20;37.40
71563;DHT22;59391;52.504;13.438;2023-06-04T03:56:29;15.20;37.50
71563;DHT22;59391;52.504;13.438;2023-06-04T03:58:55;15.20;37.50
71563;DHT22;59391;52.504;13.438;2023-06-04T04:01:21;15.20;37.40
71563;DHT22;59391;52.504;13.438;2023-06-04T04:03:48;15.20;37.40
71563;DHT22;59391;52.504;13.438;2023-06-04T04:06:15;15.20;37.40
71563;DHT22;59391;52.504;13.438;2023-06-04T04:08:43;15.20;37.50
71563;DHT22;59391;52.504;13.438;2023-06-04T04:11:13;15.20;37.60
71563;DHT22;59391;52.504;13.438;2023-06-04T04:13:40;15.10;37.90
71563;DHT22;59391;52.504;13.438;2023-06-04T04:16:06;15.10;38.20
71563;DHT22;59391;52.504;13.438;2023-06-04T04:18:36;15.10;38.30
71563;DHT22;59391;52.504;13.438;2023-06-04T04:21:02;15.10;38.20
71563;DHT22;59391;52.504;13.438;2023-06-04T04:23:30;15.10;38.30
71563;DHT22;59391;52.504;13.438;2023-06-04T04:25:57;15.10;38.10
71563;DHT22;59391;52.504;13.438;2023-06-04T04:28:25;15.10;38.00
71563;DHT22;59391;52.504;13.438;2023-06-04T04:30:56;15.10;38.10
71563;DHT22;59391;52.504;13.438;2023-06-04T04:33:23;15.10;38.10
71563;DHT22;59391;52.504;13.438;2023-06-04T04:35:52;15.10;38.20
71563;DHT22;59391;52.504;13.438;2023-06-04T04:38:20;15.10;38.20
71563;DHT22;59391;52.504;13.438;2023-06-04T04:40:49;15.10;38.20
71563;DHT22;59391;52.504;13.438;2023-06-04T04:43:27;15.10;38.10
71563;DHT22;59391;52.504;13.438;2023-06-04T04:45:54;15.10;38.50
71563;DHT22;59391;52.504;13.438;2023-06-04T04:48:20;15.10;38.50
71563;DHT22;59391;52.504;13.438;2023-06-04T04:50:45;15.10;38.40
71563;DHT22;59391;52.504;13.438;2023-06-04T04:53:11;15.20;38.40
71563;DHT22;59391;52.504;13.438;2023-06-04T04:55:36;15.20;38.70
71563;DHT22;59391;52.504;13.438;2023-06-04T04:58:02;15.20;38.50
71563;DHT22;59391;52.504;13.438;2023-06-04T05:00:29;15.30;38.50
71563;DHT22;59391;52.504;13.438;2023-06-04T05:02:55;15.30;38.40
71563;DHT22;59391;52.504;13.438;2023-06-04T05:05:20;15.30;38.10
71563;DHT22;59391;52.504;13.438;2023-06-04T05:07:46;15.40;38.30
71563;DHT22;59391;52.504;13.438;2023-06-04T05:10:12;15.40;38.20
71563;DHT22;59391;52.504;13.438;2023-06-04T05:12:38;15.40;38.20
71563;DHT22;59391;52.504;13.438;2023-06-04T05:15:04;15.50;38.10
71563;DHT22;59391;52.504;13.438;2023-06-04T05:17:30;15.50;38.10
71563;DHT22;59391;52.504;13.438;2023-06-04T05:19:56;15.60;38.10
71563;DHT22;59391;52.504;13.438;2023-06-04T05:22:37;15.60;38.10
71563;DHT22;59391;52.504;13.438;2023-06-04T05:25:03;15.60;38.10
71563;DHT22;59391;52.504;13.438;2023-06-04T05:27:29;15.70;38.40
71563;DHT22;59391;52.504;13.438;2023-06-04T05:29:57;15.70;38.40
71563;DHT22;59391;52.504;13.438;2023-06-04T05:32:23;15.80;38.30
71563;DHT22;59391;52.504;13.438;2023-06-04T05:34:49;15.80;38.20
71563;DHT22;59391;52.504;13.438;2023-06-04T05:37:15;15.90;38.10
71563;DHT22;59391;52.504;13.438;2023-06-04T05:39:43;15.90;38.20
71563;DHT22;59391;52.504;13.438;2023-06-04T05:42:09;16.00;38.40
71563;DHT22;59391;52.504;13.438;2023-06-04T05:44:35;16.00;38.60
71563;DHT22;59391;52.504;13.438;2023-06-04T05:47:00;16.10;38.50
71563;DHT22;59391;52.504;13.438;2023-06-04T05:49:26;16.20;38.50
71563;DHT22;59391;52.504;13.438;2023-06-04T05:51:52;16.20;38.20
71563;DHT22;59391;52.504;13.438;2023-06-04T05:54:17;16.30;38.80
71563;DHT22;59391;52.504;13.438;2023-06-04T05:56:43;16.30;38.70
71563;DHT22;59391;52.504;13.438;2023-06-04T05:59:09;16.40;38.40
71563;DHT22;59391;52.504;13.438;2023-06-04T06:01:34;16.40;39.00
71563;DHT22;59391;52.504;13.438;2023-06-04T06:04:00;16.50;38.80
71563;DHT22;59391;52.504;13.438;2023-06-04T06:06:26;16.60;38.20
71563;DHT22;59391;52.504;13.438;2023-06-04T06:08:51;16.60;38.30
71563;DHT22;59391;52.504;13.438;2023-06-04T06:11:18;16.70;38.00
71563;DHT22;59391;52.504;13.438;2023-06-04T06:13:43;16.70;38.30
71563;DHT22;59391;52.504;13.438;2023-06-04T06:16:09;16.80;38.30
71563;DHT22;59391;52.504;13.438;2023-06-04T06:18:35;16.80;37.90
71563;DHT22;59391;52.504;13.438;2023-06-04T06:21:00;16.90;35.90
71563;DHT22;59391;52.504;13.438;2023-06-04T06:23:26;16.90;37.20
71563;DHT22;59391;52.504;13.438;2023-06-04T06:25:52;17.00;35.90
71563;DHT22;59391;52.504;13.438;2023-06-04T06:28:18;17.10;34.80
71563;DHT22;59391;52.504;13.438;2023-06-04T06:30:44;17.10;34.50
71563;DHT22;59391;52.504;13.438;2023-06-04T06:33:10;17.20;35.30
71563;DHT22;59391;52.504;13.438;2023-06-04T06:35:36;17.30;34.80
71563;DHT22;59391;52.504;13.438;2023-06-04T06:38:01;17.30;33.40
71563;DHT22;59391;52.504;13.438;2023-06-04T06:40:27;17.40;34.00
71563;DHT22;59391;52.504;13.438;2023-06-04T06:42:55;17.50;34.40
71563;DHT22;59391;52.504;13.438;2023-06-04T06:45:21;17.50;33.70
71563;DHT22;59391;52.504;13.438;2023-06-04T06:47:47;17.60;34.80
71563;DHT22;59391;52.504;13.438;2023-06-04T06:50:13;17.70;33.20
71563;DHT22;59391;52.504;13.438;2023-06-04T06:52:38;17.70;33.20
71563;DHT22;59391;52.504;13.438;2023-06-04T06:55:04;17.80;33.20
71563;DHT22;59391;52.504;13.438;2023-06-04T06:57:30;17.90;33.50
71563;DHT22;59391;52.504;13.438;2023-06-04T06:59:56;17.90;34.30
71563;DHT22;59391;52.504;13.438;2023-06-04T07:02:22;18.00;33.40
71563;DHT22;59391;52.504;13.438;2023-06-04T07:04:48;18.00;33.50
71563;DHT22;59391;52.504;13.438;2023-06-04T07:07:13;18.10;33.60
71563;DHT22;59391;52.504;13.438;2023-06-04T07:09:39;18.20;33.00
71563;DHT22;59391;52.504;13.438;2023-06-04T07:12:05;18.20;33.40
71563;DHT22;59391;52.504;13.438;2023-06-04T07:14:31;18.30;33.50
71563;DHT22;59391;52.504;13.438;2023-06-04T07:16:57;18.40;32.80
71563;DHT22;59391;52.504;13.438;2023-06-04T07:19:23;18.40;32.20
71563;DHT22;59391;52.504;13.438;2023-06-04T07:21:50;18.50;31.60
71563;DHT22;59391;52.504;13.438;2023-06-04T07:24:15;18.60;31.80
71563;DHT22;59391;52.504;13.438;2023-06-04T07:26:41;18.60;31.90
71563;DHT22;59391;52.504;13.438;2023-06-04T07:29:07;18.70;32.30
71563;DHT22;59391;52.504;13.438;2023-06-04T07:31:32;18.70;31.40
71563;DHT22;59391;52.504;13.438;2023-06-04T07:33:58;18.80;31.00
71563;DHT22;59391;52.504;13.438;2023-06-04T07:36:24;18.80;31.00
71563;DHT22;59391;52.504;13.438;2023-06-04T07:38:49;18.90;30.80
71563;DHT22;59391;52.504;13.438;2023-06-04T07:41:15;19.00;30.60
71563;DHT22;59391;52.504;13.438;2023-06-04T07:43:42;19.00;30.80
71563;DHT22;59391;52.504;13.438;2023-06-04T07:46:08;19.10;31.30
71563;DHT22;59391;52.504;13.438;2023-06-04T07:48:35;19.20;31.10
71563;DHT22;59391;52.504;13.438;2023-06-04T07:51:02;19.20;30.50
71563;DHT22;59391;52.504;13.438;2023-06-04T07:53:29;19.30;30.00
71563;DHT22;59391;52.504;13.438;2023-06-04T07:55:56;19.40;29.60
71563;DHT22;59391;52.504;13.438;2023-06-04T07:58:22;19.50;30.20
71563;DHT22;59391;52.504;13.438;2023-06-04T08:00:48;19.60;29.20
71563;DHT22;59391;52.504;13.438;2023-06-04T08:03:14;19.70;28.80
71563;DHT22;59391;52.504;13.438;2023-06-04T08:05:43;19.70;28.10
71563;DHT22;59391;52.504;13.438;2023-06-04T08:08:09;19.80;28.60
71563;DHT22;59391;52.504;13.438;2023-06-04T08:10:35;19.90;28.60
71563;DHT22;59391;52.504;13.438;2023-06-04T08:13:00;20.00;28.40
71563;DHT22;59391;52.504;13.438;2023-06-04T08:15:26;20.10;29.40
71563;DHT22;59391;52.504;13.438;2023-06-04T08:17:51;20.20;28.60
71563;DHT22;59391;52.504;13.438;2023-06-04T08:20:17;20.40;28.60
71563;DHT22;59391;52.504;13.438;2023-06-04T08:22:43;20.50;28.00
71563;DHT22;59391;52.504;13.438;2023-06-04T08:25:09;20.60;27.00
71563;DHT22;59391;52.504;13.438;2023-06-04T08:27:35;20.70;27.20
71563;DHT22;59391;52.504;13.438;2023-06-04T08:30:00;20.70;26.20
71563;DHT22;59391;52.504;13.438;2023-06-04T08:32:27;20.70;25.80
71563;DHT22;59391;52.504;13.438;2023-06-04T08:34:54;20.90;28.10
71563;DHT22;59391;52.504;13.438;2023-06-04T08:37:19;21.00;27.60
71563;DHT22;59391;52.504;13.438;2023-06-04T08:39:46;21.10;27.30
71563;DHT22;59391;52.504;13.438;2023-06-04T08:42:18;21.20;27.10
71563;DHT22;59391;52.504;13.438;2023-06-04T08:44:51;21.30;28.00
71563;DHT22;59391;52.504;13.438;2023-06-04T08:47:19;21.50;27.40
71563;DHT22;59391;52.504;13.438;2023-06-04T08:49:49;21.60;26.80
71563;DHT22;59391;52.504;13.438;2023-06-04T08:52:16;21.80;26.40
71563;DHT22;59391;52.504;13.438;2023-06-04T08:54:42;21.90;26.00
71563;DHT22;59391;52.504;13.438;2023-06-04T08:57:09;22.10;26.20
71563;DHT22;59391;52.504;13.438;2023-06-04T08:59:36;22.40;26.10
71563;DHT22;59391;52.504;13.438;2023-06-04T09:02:02;22.60;25.90
71563;DHT22;59391;52.504;13.438;2023-06-04T09:04:30;23.00;26.40
71563;DHT22;59391;52.504;13.438;2023-06-04T09:07:02;23.30;25.30
71563;DHT22;59391;52.504;13.438;2023-06-04T09:09:29;23.60;25.50
71563;DHT22;59391;52.504;13.438;2023-06-04T09:11:57;24.00;24.70
71563;DHT22;59391;52.504;13.438;2023-06-04T09:14:28;24.40;24.70
71563;DHT22;59391;52.504;13.438;2023-06-04T09:16:57;24.80;24.00
71563;DHT22;59391;52.504;13.438;2023-06-04T09:19:27;25.10;24.00
71563;DHT22;59391;52.504;13.438;2023-06-04T09:21:57;25.40;23.20
71563;DHT22;59391;52.504;13.438;2023-06-04T09:24:25;25.70;23.30
71563;DHT22;59391;52.504;13.438;2023-06-04T09:27:10;26.10;22.90
71563;DHT22;59391;52.504;13.438;2023-06-04T09:29:37;26.40;22.40
71563;DHT22;59391;52.504;13.438;2023-06-04T09:32:02;26.60;22.50
71563;DHT22;59391;52.504;13.438;2023-06-04T09:34:29;26.90;22.30
71563;DHT22;59391;52.504;13.438;2023-06-04T09:36:55;27.20;21.90
71563;DHT22;59391;52.504;13.438;2023-06-04T09:39:21;27.40;21.50
71563;DHT22;59391;52.504;13.438;2023-06-04T09:41:58;27.60;21.60
71563;DHT22;59391;52.504;13.438;2023-06-04T09:44:42;27.80;21.50
71563;DHT22;59391;52.504;13.438;2023-06-04T09:47:08;28.00;21.30
71563;DHT22;59391;52.504;13.438;2023-06-04T09:49:46;28.20;21.10
71563;DHT22;59391;52.504;13.438;2023-06-04T09:52:13;28.40;20.00
71563;DHT22;59391;52.504;13.438;2023-06-04T09:54:41;28.40;20.30
71563;DHT22;59391;52.504;13.438;2023-06-04T09:57:19;28.40;20.20
71563;DHT22;59391;52.504;13.438;2023-06-04T09:59:46;28.40;20.20
71563;DHT22;59391;52.504;13.438;2023-06-04T10:02:19;28.30;20.40
71563;DHT22;59391;52.504;13.438;2023-06-04T10:04:58;28.30;20.30
71563;DHT22;59391;52.504;13.438;2023-06-04T10:07:29;28.40;19.90
71563;DHT22;59391;52.504;13.438;2023-06-04T10:09:55;28.30;20.20
71563;DHT22;59391;52.504;13.438;2023-06-04T10:12:35;28.40;20.00
71563;DHT22;59391;52.504;13.438;2023-06-04T10:15:07;28.40;21.00
71563;DHT22;59391;52.504;13.438;2023-06-04T10:17:36;28.40;20.40
71563;DHT22;59391;52.504;13.438;2023-06-04T10:20:03;28.50;20.20
71563;DHT22;59391;52.504;13.438;2023-06-04T10:22:33;28.60;20.10
71563;DHT22;59391;52.504;13.438;2023-06-04T10:25:01;28.70;20.00
71563;DHT22;59391;52.504;13.438;2023-06-04T10:27:29;28.80;20.30
71563;DHT22;59391;52.504;13.438;2023-06-04T10:30:01;28.90;20.10
71563;DHT22;59391;52.504;13.438;2023-06-04T10:32:29;28.90;20.30
71563;DHT22;59391;52.504;13.438;2023-06-04T10:34:55;29.10;20.20
71563;DHT22;59391;52.504;13.438;2023-06-04T10:37:23;29.20;20.00
71563;DHT22;59391;52.504;13.438;2023-06-04T10:39:58;29.30;19.60
71563;DHT22;59391;52.504;13.438;2023-06-04T10:42:25;29.30;19.50
71563;DHT22;59391;52.504;13.438;2023-06-04T10:45:02;29.40;19.20
71563;DHT22;59391;52.504;13.438;2023-06-04T10:47:28;29.50;19.70
71563;DHT22;59391;52.504;13.438;2023-06-04T10:50:10;29.60;19.00
71563;DHT22;59391;52.504;13.438;2023-06-04T10:52:53;29.70;19.20
71563;DHT22;59391;52.504;13.438;2023-06-04T10:55:20;29.80;19.60
71563;DHT22;59391;52.504;13.438;2023-06-04T10:57:59;30.00;19.20
71563;DHT22;59391;52.504;13.438;2023-06-04T11:00:43;30.10;18.40
71563;DHT22;59391;52.504;13.438;2023-06-04T11:03:15;30.30;18.70
71563;DHT22;59391;52.504;13.438;2023-06-04T11:05:45;30.30;17.90
71563;DHT22;59391;52.504;13.438;2023-06-04T11:08:13;30.40;18.10
71563;DHT22;59391;52.504;13.438;2023-06-04T11:10:48;30.50;18.50
71563;DHT22;59391;52.504;13.438;2023-06-04T11:13:14;30.50;18.50
71563;DHT22;59391;52.504;13.438;2023-06-04T11:15:45;30.60;18.70
71563;DHT22;59391;52.504;13.438;2023-06-04T11:18:21;30.80;18.50
71563;DHT22;59391;52.504;13.438;2023-06-04T11:20:50;30.90;18.30
71563;DHT22;59391;52.504;13.438;2023-06-04T11:23:24;31.10;18.40
71563;DHT22;59391;52.504;13.438;2023-06-04T11:25:52;31.30;18.10
71563;DHT22;59391;52.504;13.438;2023-06-04T11:28:18;31.30;17.60
71563;DHT22;59391;52.504;13.438;2023-06-04T11:30:58;31.20;17.80
71563;DHT22;59391;52.504;13.438;2023-06-04T11:33:24;31.10;17.40
71563;DHT22;59391;52.504;13.438;2023-06-04T11:35:52;31.00;18.50
71563;DHT22;59391;52.504;13.438;2023-06-04T11:38:21;30.80;17.70
71563;DHT22;59391;52.504;13.438;2023-06-04T11:40:58;30.70;17.80
71563;DHT22;59391;52.504;13.438;2023-06-04T11:43:24;30.60;18.10
71563;DHT22;59391;52.504;13.438;2023-06-04T11:45:53;30.60;18.60
71563;DHT22;59391;52.504;13.438;2023-06-04T11:48:20;30.70;18.10
71563;DHT22;59391;52.504;13.438;2023-06-04T11:50:46;30.80;18.30
71563;DHT22;59391;52.504;13.438;2023-06-04T11:53:12;30.90;18.50
71563;DHT22;59391;52.504;13.438;2023-06-04T11:55:39;31.10;18.40
71563;DHT22;59391;52.504;13.438;2023-06-04T11:58:08;31.20;18.20
71563;DHT22;59391;52.504;13.438;2023-06-04T12:00:34;31.30;18.60
71563;DHT22;59391;52.504;13.438;2023-06-04T12:03:01;31.40;18.10
71563;DHT22;59391;52.504;13.438;2023-06-04T12:05:30;31.50;18.50
71563;DHT22;59391;52.504;13.438;2023-06-04T12:08:07;31.60;19.50
71563;DHT22;59391;52.504;13.438;2023-06-04T12:10:40;31.70;17.90
71563;DHT22;59391;52.504;13.438;2023-06-04T12:13:08;31.80;17.80
71563;DHT22;59391;52.504;13.438;2023-06-04T12:15:34;31.80;17.00
71563;DHT22;59391;52.504;13.438;2023-06-04T12:18:00;31.60;16.90
71563;DHT22;59391;52.504;13.438;2023-06-04T12:20:39;31.40;17.30
71563;DHT22;59391;52.504;13.438;2023-06-04T12:23:07;31.30;17.50
71563;DHT22;59391;52.504;13.438;2023-06-04T12:25:34;31.10;18.30
71563;DHT22;59391;52.504;13.438;2023-06-04T12:28:02;30.90;17.90
71563;DHT22;59391;52.504;13.438;2023-06-04T12:30:40;30.70;17.70
71563;DHT22;59391;52.504;13.438;2023-06-04T12:33:06;30.60;17.90
71563;DHT22;59391;52.504;13.438;2023-06-04T12:35:32;30.50;18.10
71563;DHT22;59391;52.504;13.438;2023-06-04T12:37:58;30.40;18.30
71563;DHT22;59391;52.504;13.438;2023-06-04T12:40:24;30.40;18.30
71563;DHT22;59391;52.504;13.438;2023-06-04T12:42:50;30.40;18.50
71563;DHT22;59391;52.504;13.438;2023-06-04T12:45:16;30.60;18.60
71563;DHT22;59391;52.504;13.438;2023-06-04T12:47:42;30.60;18.60
71563;DHT22;59391;52.504;13.438;2023-06-04T12:50:08;30.80;18.20
71563;DHT22;59391;52.504;13.438;2023-06-04T12:52:34;30.90;18.20
71563;DHT22;59391;52.504;13.438;2023-06-04T12:55:03;31.00;18.30
71563;DHT22;59391;52.504;13.438;2023-06-04T12:57:29;31.20;17.90
71563;DHT22;59391;52.504;13.438;2023-06-04T12:59:57;31.30;17.90
71563;DHT22;59391;52.504;13.438;2023-06-04T13:02:26;31.50;18.30
71563;DHT22;59391;52.504;13.438;2023-06-04T13:04:51;31.60;17.80
71563;DHT22;59391;52.504;13.438;2023-06-04T13:07:21;31.70;17.40
71563;DHT22;59391;52.504;13.438;2023-06-04T13:09:47;31.70;17.40
71563;DHT22;59391;52.504;13.438;2023-06-04T13:12:13;31.70;17.30
71563;DHT22;59391;52.504;13.438;2023-06-04T13:14:38;31.70;17.60
71563;DHT22;59391;52.504;13.438;2023-06-04T13:17:12;31.60;17.60
71563;DHT22;59391;52.504;13.438;2023-06-04T13:19:38;31.50;17.70
71563;DHT22;59391;52.504;13.438;2023-06-04T13:22:04;31.40;18.00
71563;DHT22;59391;52.504;13.438;2023-06-04T13:24:29;31.20;17.80
71563;DHT22;59391;52.504;13.438;2023-06-04T13:26:55;31.10;18.00
71563;DHT22;59391;52.504;13.438;2023-06-04T13:29:21;30.90;18.20
71563;DHT22;59391;52.504;13.438;2023-06-04T13:31:48;30.80;18.20
71563;DHT22;59391;52.504;13.438;2023-06-04T13:34:14;30.60;18.70
71563;DHT22;59391;52.504;13.438;2023-06-04T13:36:40;30.50;18.60
71563;DHT22;59391;52.504;13.438;2023-06-04T13:39:05;30.40;18.60
71563;DHT22;59391;52.504;13.438;2023-06-04T13:41:31;30.20;18.00
71563;DHT22;59391;52.504;13.438;2023-06-04T13:43:57;30.10;18.50
71563;DHT22;59391;52.504;13.438;2023-06-04T13:46:22;29.90;18.20
71563;DHT22;59391;52.504;13.438;2023-06-04T13:48:48;29.70;18.60
71563;DHT22;59391;52.504;13.438;2023-06-04T13:51:14;29.60;19.10
71563;DHT22;59391;52.504;13.438;2023-06-04T13:53:39;29.20;18.10
71563;DHT22;59391;52.504;13.438;2023-06-04T13:56:05;28.90;18.30
71563;DHT22;59391;52.504;13.438;2023-06-04T13:58:30;28.40;18.60
71563;DHT22;59391;52.504;13.438;2023-06-04T14:00:57;28.10;19.40
71563;DHT22;59391;52.504;13.438;2023-06-04T14:03:22;27.90;19.60
71563;DHT22;59391;52.504;13.438;2023-06-04T14:05:48;27.70;19.80
71563;DHT22;59391;52.504;13.438;2023-06-04T14:08:14;27.60;19.90
71563;DHT22;59391;52.504;13.438;2023-06-04T14:10:39;27.60;19.80
71563;DHT22;59391;52.504;13.438;2023-06-04T14:13:07;27.60;19.70
71563;DHT22;59391;52.504;13.438;2023-06-04T14:15:33;27.60;19.60
71563;DHT22;59391;52.504;13.438;2023-06-04T14:17:59;27.60;19.80
71563;DHT22;59391;52.504;13.438;2023-06-04T14:20:25;27.70;19.20
71563;DHT22;59391;52.504;13.438;2023-06-04T14:22:51;27.70;19.10
71563;DHT22;59391;52.504;13.438;2023-06-04T14:25:16;27.80;19.00
71563;DHT22;59391;52.504;13.438;2023-06-04T14:27:42;27.80;19.50
71563;DHT22;59391;52.504;13.438;2023-06-04T14:30:09;27.90;19.50
71563;DHT22;59391;52.504;13.438;2023-06-04T14:32:36;28.00;19.60
71563;DHT22;59391;52.504;13.438;2023-06-04T14:35:01;28.00;19.60
71563;DHT22;59391;52.504;13.438;2023-06-04T14:37:27;28.00;19.50
71563;DHT22;59391;52.504;13.438;2023-06-04T14:39:53;28.10;19.70
71563;DHT22;59391;52.504;13.438;2023-06-04T14:42:18;28.10;19.80
71563;DHT22;59391;52.504;13.438;2023-06-04T14:44:45;28.20;19.50
71563;DHT22;59391;52.504;13.438;2023-06-04T14:47:11;28.20;19.40
71563;DHT22;59391;52.504;13.438;2023-06-04T14:49:36;28.20;19.20
71563;DHT22;59391;52.504;13.438;2023-06-04T14:52:03;28.20;20.10
71563;DHT22;59391;52.504;13.438;2023-06-04T14:54:28;28.20;20.10
71563;DHT22;59391;52.504;13.438;2023-06-04T14:56:55;28.20;19.60
71563;DHT22;59391;52.504;13.438;2023-06-04T14:59:20;28.20;19.40
71563;DHT22;59391;52.504;13.438;2023-06-04T15:01:46;28.20;19.60
71563;DHT22;59391;52.504;13.438;2023-06-04T15:04:12;28.20;19.70
71563;DHT22;59391;52.504;13.438;2023-06-04T15:06:38;28.30;19.60
71563;DHT22;59391;52.504;13.438;2023-06-04T15:09:06;28.30;19.50
71563;DHT22;59391;52.504;13.438;2023-06-04T15:11:32;28.30;19.70
71563;DHT22;59391;52.504;13.438;2023-06-04T15:13:57;28.30;20.10
71563;DHT22;59391;52.504;13.438;2023-06-04T15:16:23;28.30;20.20
71563;DHT22;59391;52.504;13.438;2023-06-04T15:21:34;28.30;20.00